createdAt,value
2022-09-11T00:04:20.600Z,50.42
2022-09-11T00:09:27.868Z,50.64
2022-09-11T00:14:35.027Z,50.91
2022-09-11T00:19:42.226Z,51.05
2022-09-11T00:24:49.464Z,51.22
2022-09-11T00:29:56.633Z,51.25
2022-09-11T00:35:03.811Z,51.22
2022-09-11T00:40:11.091Z,51.29
2022-09-11T00:45:18.269Z,51.37
2022-09-11T00:50:25.421Z,51.28
2022-09-11T00:55:32.665Z,51.30
2022-09-11T01:00:39.882Z,51.19
2022-09-11T01:05:47.005Z,51.35
2022-09-11T01:10:54.315Z,51.35
2022-09-11T01:16:01.473Z,51.18
2022-09-11T01:21:08.651Z,51.17
2022-09-11T01:26:15.865Z,51.19
2022-09-11T01:31:23.116Z,51.28
2022-09-11T01:36:30.279Z,51.18
2022-09-11T01:41:37.510Z,51.22
2022-09-11T01:46:44.681Z,51.26
2022-09-11T01:51:51.895Z,51.16
2022-09-11T01:56:59.938Z,51.19
2022-09-11T02:02:07.227Z,51.13
2022-09-11T02:07:14.356Z,51.13
2022-09-11T02:12:21.618Z,51.10
2022-09-11T02:17:28.746Z,51.05
2022-09-11T02:22:35.918Z,50.97
2022-09-11T02:27:43.171Z,51.06
2022-09-11T02:32:50.315Z,51.03
2022-09-11T02:37:57.496Z,50.97
2022-09-11T02:43:04.815Z,51.02
2022-09-11T02:48:12.038Z,50.90
2022-09-11T02:53:19.290Z,50.80
2022-09-11T02:58:26.462Z,50.92
2022-09-11T03:03:33.751Z,50.91
2022-09-11T03:08:40.882Z,50.80
2022-09-11T03:13:48.085Z,50.83
2022-09-11T03:18:55.300Z,50.83
2022-09-11T03:24:02.519Z,50.84
2022-09-11T03:29:09.725Z,50.81
2022-09-11T03:34:16.954Z,50.77
2022-09-11T03:39:24.212Z,50.68
2022-09-11T03:44:31.457Z,50.77
2022-09-11T03:49:38.657Z,50.72
2022-09-11T03:54:46.133Z,50.69
2022-09-11T03:59:53.363Z,50.66
2022-09-11T04:05:00.519Z,50.58
2022-09-11T04:10:07.664Z,50.64
2022-09-11T04:15:14.967Z,50.55
2022-09-11T04:20:22.126Z,50.56
2022-09-11T04:25:29.382Z,50.58
2022-09-11T04:30:36.597Z,50.55
2022-09-11T04:35:43.780Z,50.57
2022-09-11T04:40:50.986Z,50.48
2022-09-11T04:45:58.295Z,50.55
2022-09-11T04:51:05.438Z,50.47
2022-09-11T04:56:12.597Z,50.50
2022-09-11T05:01:19.861Z,50.45
2022-09-11T05:06:27.045Z,50.44
2022-09-11T05:11:34.208Z,50.56
2022-09-11T05:16:41.487Z,50.51
2022-09-11T05:21:48.636Z,50.53
2022-09-11T05:26:55.822Z,50.47
2022-09-11T05:32:03.040Z,50.39
2022-09-11T05:37:10.235Z,50.30
2022-09-11T05:42:17.490Z,50.39
2022-09-11T05:47:24.659Z,50.36
2022-09-11T05:52:31.888Z,50.28
2022-09-11T05:57:39.068Z,50.28
2022-09-11T06:02:46.292Z,50.17
2022-09-11T06:07:53.466Z,50.26
2022-09-11T06:13:00.675Z,50.29
2022-09-11T06:18:07.936Z,50.28
2022-09-11T06:23:15.094Z,50.22
2022-09-11T06:28:22.352Z,50.13
2022-09-11T06:33:29.624Z,50.01
2022-09-11T06:38:36.849Z,49.93
2022-09-11T06:43:44.226Z,49.98
2022-09-11T06:48:51.381Z,49.72
2022-09-11T06:53:58.503Z,49.75
2022-09-11T06:59:05.723Z,49.91
2022-09-11T07:04:12.941Z,49.78
2022-09-11T07:09:20.118Z,49.72
2022-09-11T07:14:27.354Z,49.73
2022-09-11T07:19:34.601Z,49.87
2022-09-11T07:24:41.766Z,49.85
2022-09-11T07:29:49.056Z,49.81
2022-09-11T07:34:56.251Z,49.91
2022-09-11T07:40:03.415Z,49.87
2022-09-11T07:45:10.565Z,49.97
2022-09-11T07:50:17.829Z,49.82
2022-09-11T07:55:24.968Z,49.81
2022-09-11T08:00:36.516Z,50.74
2022-09-11T08:05:39.434Z,51.15
2022-09-11T08:10:46.615Z,50.79
2022-09-11T08:15:53.800Z,51.44
2022-09-11T08:21:01.024Z,51.71
2022-09-11T08:26:08.210Z,51.95
2022-09-11T08:31:15.455Z,51.58
2022-09-11T08:36:22.638Z,51.77
2022-09-11T08:41:29.815Z,51.69
2022-09-11T08:46:37.079Z,51.69
2022-09-11T08:51:44.345Z,51.67
2022-09-11T08:56:51.532Z,51.96
2022-09-11T09:01:58.759Z,51.74
2022-09-11T09:07:05.952Z,51.74
2022-09-11T09:12:13.145Z,51.50
2022-09-11T09:17:20.343Z,51.11
2022-09-11T09:22:27.571Z,50.92
2022-09-11T09:27:34.861Z,51.13
2022-09-11T09:32:42.069Z,51.25
2022-09-11T09:37:49.294Z,51.32
2022-09-11T09:42:56.690Z,51.11
2022-09-11T09:48:04.110Z,50.93
2022-09-11T09:53:11.524Z,50.71
2022-09-11T09:58:18.746Z,50.85
2022-09-11T10:03:26.021Z,51.03
2022-09-11T10:08:33.388Z,50.77
2022-09-11T10:13:40.441Z,50.62
2022-09-11T10:18:47.648Z,50.56
2022-09-11T10:23:54.934Z,50.77
2022-09-11T10:29:02.129Z,51.09
2022-09-11T10:34:09.334Z,51.01
2022-09-11T10:39:16.535Z,51.45
2022-09-11T10:44:23.758Z,51.80
2022-09-11T10:49:30.952Z,51.91
2022-09-11T10:54:38.242Z,51.82
2022-09-11T10:59:45.471Z,51.82
2022-09-11T11:04:52.686Z,51.06
2022-09-11T11:09:59.900Z,51.07
2022-09-11T11:15:07.135Z,51.32
2022-09-11T11:20:14.278Z,51.35
2022-09-11T11:25:21.512Z,50.78
2022-09-11T11:30:28.619Z,50.87
2022-09-11T11:35:35.834Z,50.85
2022-09-11T11:40:43.080Z,50.58
2022-09-11T11:45:50.356Z,50.84
2022-09-11T11:50:57.581Z,51.25
2022-09-11T11:56:04.909Z,51.16
2022-09-11T12:01:12.135Z,51.54
2022-09-11T12:06:19.556Z,50.55
2022-09-11T12:11:26.868Z,51.38
2022-09-11T12:16:34.166Z,51.54
2022-09-11T12:21:41.244Z,51.62
2022-09-11T12:26:48.838Z,51.74
2022-09-11T12:31:56.290Z,50.90
2022-09-11T12:37:03.493Z,50.71
2022-09-11T12:42:10.737Z,50.31
2022-09-11T12:47:17.899Z,51.09
2022-09-11T12:52:25.111Z,50.17
2022-09-11T12:57:32.319Z,49.66
2022-09-11T13:02:39.515Z,49.49
2022-09-11T13:07:46.681Z,48.77
2022-09-11T13:12:53.935Z,48.54
2022-09-11T13:18:01.050Z,49.19
2022-09-11T13:23:08.275Z,49.10
2022-09-11T13:28:21.388Z,49.84
2022-09-11T13:33:22.734Z,50.26
2022-09-11T13:38:29.932Z,50.25
2022-09-11T13:43:37.249Z,49.79
2022-09-11T13:48:44.607Z,49.22
2022-09-11T13:53:51.988Z,49.29
2022-09-11T13:59:02.752Z,49.81
2022-09-11T14:04:06.467Z,49.56
2022-09-11T14:09:13.698Z,50.19
2022-09-11T14:14:20.964Z,50.51
2022-09-11T14:19:28.205Z,50.07
2022-09-11T14:24:35.457Z,49.64
2022-09-11T14:29:42.624Z,48.60
2022-09-11T14:34:49.793Z,50.61
2022-09-11T14:39:57.013Z,49.91
2022-09-11T14:45:04.132Z,49.45
2022-09-11T14:50:11.304Z,50.11
2022-09-11T14:55:18.577Z,49.66
2022-09-11T15:00:25.777Z,50.09
2022-09-11T15:05:32.947Z,49.77
2022-09-11T15:10:40.161Z,50.35
2022-09-11T15:15:47.466Z,49.75
2022-09-11T15:20:54.667Z,50.22
2022-09-11T15:26:01.865Z,49.63
2022-09-11T15:31:09.124Z,50.67
2022-09-11T15:36:16.285Z,50.26
2022-09-11T15:41:23.485Z,50.42
2022-09-11T15:46:30.879Z,50.16
2022-09-11T15:51:37.977Z,49.57
2022-09-11T15:56:45.215Z,48.58
2022-09-11T16:01:52.506Z,48.13
2022-09-11T16:06:59.595Z,48.36
2022-09-11T16:12:06.809Z,48.52
2022-09-11T16:17:14.040Z,47.60
2022-09-11T16:22:21.250Z,47.68
2022-09-11T16:27:28.510Z,47.97
2022-09-11T16:32:35.738Z,47.69
2022-09-11T16:37:42.916Z,48.03
2022-09-11T16:42:50.146Z,48.26
2022-09-11T16:47:57.398Z,47.94
2022-09-11T16:53:04.556Z,48.87
2022-09-11T16:58:13.066Z,48.52
2022-09-11T17:03:20.297Z,48.03
2022-09-11T17:08:27.432Z,48.11
2022-09-11T17:13:34.644Z,47.96
2022-09-11T17:18:41.872Z,48.77
2022-09-11T17:23:49.009Z,49.87
2022-09-11T17:28:56.499Z,50.14
2022-09-11T17:34:03.944Z,50.87
2022-09-11T17:39:11.133Z,50.89
2022-09-11T17:44:18.373Z,51.26
2022-09-11T17:49:25.853Z,51.27
2022-09-11T17:54:33.147Z,50.82
2022-09-11T17:59:40.555Z,50.67
2022-09-11T18:04:48.090Z,51.03
2022-09-11T18:09:56.474Z,51.36
2022-09-11T18:15:02.982Z,51.05
2022-09-11T18:20:10.316Z,51.22
2022-09-11T18:25:19.691Z,50.91
2022-09-11T18:30:24.884Z,50.80
2022-09-11T18:35:32.353Z,50.80
2022-09-11T18:40:40.030Z,50.90
2022-09-11T18:45:47.748Z,51.01
2022-09-11T18:50:55.383Z,51.32
2022-09-11T18:56:02.869Z,51.30
2022-09-11T19:01:10.469Z,51.25
2022-09-11T19:06:18.028Z,51.15
2022-09-11T19:11:25.437Z,51.03
2022-09-11T19:16:33.072Z,51.13
2022-09-11T19:21:40.661Z,51.29
2022-09-11T19:26:48.258Z,51.08
2022-09-11T19:31:55.905Z,51.03
2022-09-11T19:37:03.528Z,51.00
2022-09-11T19:42:10.862Z,51.03
2022-09-11T19:47:18.105Z,50.86
2022-09-11T19:52:27.771Z,50.77
2022-09-11T19:57:32.693Z,50.62
2022-09-11T20:02:40.015Z,50.72
2022-09-11T20:07:47.358Z,50.64
2022-09-11T20:12:54.518Z,50.49
2022-09-11T20:18:01.747Z,50.23
2022-09-11T20:23:08.987Z,50.50
2022-09-11T20:28:16.119Z,50.39
2022-09-11T20:33:23.368Z,50.13
2022-09-11T20:38:30.587Z,50.07
2022-09-11T20:43:37.812Z,50.33
2022-09-11T20:48:44.961Z,50.01
2022-09-11T20:53:52.197Z,49.74
2022-09-11T20:59:00.615Z,49.58
2022-09-11T21:04:06.643Z,49.58
2022-09-11T21:09:13.908Z,49.50
2022-09-11T21:14:21.090Z,49.45
2022-09-11T21:19:28.329Z,49.38
2022-09-11T21:24:35.612Z,49.25
2022-09-11T21:29:42.825Z,49.32
2022-09-11T21:34:50.031Z,49.19
2022-09-11T21:39:57.260Z,49.19
2022-09-11T21:45:04.369Z,49.06
2022-09-11T21:50:11.508Z,49.08
2022-09-11T21:55:18.809Z,48.77
2022-09-11T22:00:26.051Z,48.38
2022-09-11T22:05:33.258Z,48.39
2022-09-11T22:10:40.475Z,48.33
2022-09-11T22:15:47.676Z,48.20
2022-09-11T22:20:54.845Z,48.10
2022-09-11T22:26:02.085Z,48.24
2022-09-11T22:31:09.347Z,48.90
2022-09-11T22:36:16.493Z,49.06
2022-09-11T22:41:23.727Z,49.41
2022-09-11T22:46:31.005Z,49.52
2022-09-11T22:51:38.253Z,49.50
2022-09-11T22:56:46.534Z,49.43
2022-09-11T23:01:53.842Z,49.17
2022-09-11T23:07:01.095Z,49.28
2022-09-11T23:12:08.311Z,49.26
2022-09-11T23:17:16.618Z,49.32
2022-09-11T23:22:24.096Z,49.26
2022-09-11T23:27:31.372Z,49.18
2022-09-11T23:32:41.786Z,49.19
2022-09-11T23:37:45.898Z,49.09
2022-09-11T23:42:53.128Z,49.08
2022-09-11T23:48:00.315Z,49.02
2022-09-11T23:53:07.514Z,49.01
2022-09-11T23:58:14.743Z,48.78
